Terminal Aerodrome Forecast
Issued by NWS Dodge City, KS

Home | Current Version | Previous Version | Graphics & Text | Print | Product List | Glossary Off
Versions: 1 2 3 4 5 6 7 8 9 10 11 12 13 14 15 16 17 18 19 20 21 22 23 24 25 26 27 28 29 30 31 32 33 34 35 36 37 38

147
FTUS43 KDDC 192321
TAFDDC
TAF
KDDC 192321Z 2000/2024 14015KT P6SM FEW250
     FM201800 14018G28KT P6SM -SHRA OVC080
     FM202200 14015KT 6SM -SHRA OVC030=

USA.gov is the U.S. government's official web portal to all federal, state and local government web resources and services.